createdAt,value
2022-09-06T00:00:16.344Z,7.20
2022-09-06T00:02:43.482Z,6.57
2022-09-06T00:05:11.486Z,5.97
2022-09-06T00:07:38.846Z,6.85
2022-09-06T00:10:06.428Z,5.45
2022-09-06T00:12:33.491Z,9.20
2022-09-06T00:15:00.251Z,5.60
2022-09-06T00:17:26.987Z,6.47
2022-09-06T00:19:53.779Z,6.32
2022-09-06T00:22:20.598Z,7.10
2022-09-06T00:24:47.316Z,8.63
2022-09-06T00:27:13.984Z,6.55
2022-09-06T00:29:41.007Z,5.70
2022-09-06T00:32:08.994Z,7.75
2022-09-06T00:34:35.687Z,6.47
2022-09-06T00:37:02.408Z,8.60
2022-09-06T00:39:29.198Z,8.73
2022-09-06T00:41:55.935Z,7.03
2022-09-06T00:44:22.663Z,7.80
2022-09-06T00:46:52.950Z,7.93
2022-09-06T00:49:27.458Z,7.13
2022-09-06T00:52:01.570Z,7.22
2022-09-06T00:54:28.590Z,7.38
2022-09-06T00:56:57.752Z,6.85
2022-09-06T00:59:30.991Z,7.60
2022-09-06T01:01:58.373Z,5.63
2022-09-06T01:04:26.474Z,8.57
2022-09-06T01:07:11.241Z,7.28
2022-09-06T01:09:44.079Z,5.75
2022-09-06T01:12:37.298Z,7.97
2022-09-06T01:15:16.430Z,6.68
2022-09-06T01:18:05.134Z,7.13
2022-09-06T01:20:34.814Z,6.30
2022-09-06T01:23:22.543Z,6.82
2022-09-06T01:26:20.306Z,6.43
2022-09-06T01:28:48.040Z,6.22
2022-09-06T01:31:37.256Z,7.95
2022-09-06T01:34:04.015Z,6.40
2022-09-06T01:37:08.491Z,9.60
2022-09-06T01:39:36.693Z,7.32
2022-09-06T01:42:14.584Z,6.15
2022-09-06T01:44:46.235Z,8.90
2022-09-06T01:47:21.180Z,10.40
2022-09-06T01:50:10.906Z,11.25
2022-09-06T01:52:55.880Z,10.20
2022-09-06T01:55:34.703Z,9.50
2022-09-06T01:58:07.603Z,15.00
2022-09-06T02:00:44.508Z,19.27
2022-09-06T02:03:37.538Z,18.48
2022-09-06T02:06:07.598Z,11.45
2022-09-06T02:08:40.179Z,13.27
2022-09-06T02:11:09.024Z,12.07
2022-09-06T02:13:40.868Z,11.15
2022-09-06T02:16:10.702Z,12.77
2022-09-06T02:19:09.657Z,7.68
2022-09-06T02:21:41.900Z,10.57
2022-09-06T02:58:38.287Z,7.00
2022-09-06T03:01:05.489Z,7.72
2022-09-06T03:03:32.226Z,8.07
2022-09-06T03:05:59.037Z,6.75
2022-09-06T03:08:26.273Z,9.02
2022-09-06T03:10:55.978Z,9.15
2022-09-06T03:13:24.495Z,8.68
2022-09-06T03:15:52.763Z,10.18
2022-09-06T03:18:19.931Z,8.15
2022-09-06T03:20:49.902Z,10.13
2022-09-06T03:23:17.892Z,8.77
2022-09-06T03:25:44.723Z,9.20
2022-09-06T03:28:12.855Z,10.18
2022-09-06T03:30:40.485Z,9.05
2022-09-06T03:33:07.255Z,8.50
2022-09-06T03:35:34.022Z,9.38
2022-09-06T03:38:00.795Z,8.48
2022-09-06T03:40:27.555Z,9.88
2022-09-06T03:42:54.479Z,12.02
2022-09-06T03:45:21.205Z,6.97
2022-09-06T03:47:47.914Z,9.18
2022-09-06T03:50:14.851Z,8.30
2022-09-06T03:52:41.693Z,6.80
2022-09-06T03:55:08.867Z,9.18
2022-09-06T03:57:35.670Z,10.23
2022-09-06T04:00:02.767Z,8.20
2022-09-06T04:02:29.530Z,8.38
2022-09-06T04:04:56.455Z,11.30
2022-09-06T04:07:23.239Z,11.50
2022-09-06T04:09:50.058Z,11.65
2022-09-06T04:12:16.803Z,8.40
2022-09-06T04:14:43.450Z,8.15
2022-09-06T04:17:10.598Z,10.27
2022-09-06T04:19:37.276Z,8.80
2022-09-06T04:22:04.063Z,11.90
2022-09-06T04:24:30.718Z,9.43
2022-09-06T04:26:57.438Z,7.82
2022-09-06T04:29:24.630Z,10.32
2022-09-06T04:31:51.345Z,7.65
2022-09-06T04:34:19.659Z,8.23
2022-09-06T04:36:48.491Z,11.15
2022-09-06T04:39:15.441Z,8.30
2022-09-06T04:41:42.683Z,9.27
2022-09-06T04:44:09.497Z,9.95
2022-09-06T04:46:36.302Z,8.32
2022-09-06T04:49:03.705Z,7.18
2022-09-06T04:51:31.519Z,7.40
2022-09-06T04:53:58.208Z,10.45
2022-09-06T04:56:26.475Z,7.57
2022-09-06T04:58:55.064Z,9.05
2022-09-06T05:01:22.603Z,8.00
2022-09-06T05:03:49.359Z,10.35
2022-09-06T05:06:20.705Z,8.43
2022-09-06T05:08:47.912Z,7.72
2022-09-06T05:11:14.858Z,6.97
2022-09-06T05:13:42.179Z,8.90
2022-09-06T05:16:09.699Z,9.57
2022-09-06T05:18:36.816Z,8.80
2022-09-06T05:21:04.130Z,8.40
2022-09-06T05:23:30.823Z,8.65
2022-09-06T05:25:57.614Z,9.10
2022-09-06T05:28:24.506Z,9.70
2022-09-06T05:30:51.248Z,10.40
2022-09-06T05:33:22.731Z,8.60
2022-09-06T05:35:49.769Z,7.53
2022-09-06T05:38:16.625Z,9.55
2022-09-06T05:40:43.799Z,8.40
2022-09-06T05:43:10.653Z,7.50
2022-09-06T05:45:37.572Z,8.55
2022-09-06T05:48:04.799Z,10.27
2022-09-06T05:50:31.529Z,9.88
2022-09-06T05:52:58.220Z,10.50
2022-09-06T05:55:25.082Z,9.32
2022-09-06T05:57:51.901Z,8.60
2022-09-06T06:00:18.676Z,10.48
2022-09-06T06:02:48.562Z,10.90
2022-09-06T06:05:16.129Z,9.05
2022-09-06T06:07:43.165Z,9.60
2022-09-06T06:10:10.330Z,10.10
2022-09-06T06:12:37.120Z,10.25
2022-09-06T06:15:05.578Z,11.38
2022-09-06T06:17:32.483Z,8.45
2022-09-06T06:19:59.244Z,8.52
2022-09-06T06:22:27.251Z,12.27
2022-09-06T06:24:54.069Z,11.45
2022-09-06T06:27:20.771Z,11.90
2022-09-06T06:29:47.571Z,11.60
2022-09-06T06:32:14.396Z,10.68
2022-09-06T06:34:41.270Z,11.50
2022-09-06T06:37:08.004Z,11.05
2022-09-06T06:39:34.848Z,10.85
2022-09-06T06:42:01.562Z,9.48
2022-09-06T06:44:28.408Z,10.73
2022-09-06T06:46:57.938Z,10.02
2022-09-06T06:49:25.183Z,8.95
2022-09-06T06:51:52.131Z,10.13
2022-09-06T06:54:19.069Z,10.38
2022-09-06T06:56:45.934Z,8.98
2022-09-06T06:59:13.090Z,14.35
2022-09-06T07:01:40.308Z,10.25
2022-09-06T07:04:08.665Z,11.43
2022-09-06T07:12:26.977Z,14.13
2022-09-06T07:14:53.831Z,13.45
2022-09-06T07:17:22.034Z,10.25
2022-09-06T07:22:37.363Z,12.82
2022-09-06T07:25:05.722Z,10.27
2022-09-06T07:27:48.931Z,9.48
2022-09-06T07:30:16.631Z,11.20
2022-09-06T07:32:43.510Z,10.55
2022-09-06T07:35:12.315Z,8.52
2022-09-06T07:37:39.225Z,11.35
2022-09-06T07:40:08.024Z,15.38
2022-09-06T07:42:36.339Z,13.73
2022-09-06T07:45:05.690Z,9.63
2022-09-06T07:53:10.111Z,11.80
2022-09-06T07:55:41.038Z,10.13
2022-09-06T07:58:08.234Z,9.25
2022-09-06T08:00:36.301Z,12.02
2022-09-06T08:03:04.420Z,8.95
2022-09-06T08:11:07.547Z,9.57
2022-09-06T08:13:35.944Z,10.45
2022-09-06T08:16:05.641Z,9.85
2022-09-06T08:18:35.352Z,10.93
2022-09-06T08:21:12.579Z,8.82
2022-09-06T08:23:44.494Z,12.07
2022-09-06T08:26:12.026Z,9.57
2022-09-06T08:28:38.976Z,16.10
2022-09-06T08:31:07.973Z,13.23
2022-09-06T08:33:35.540Z,11.65
2022-09-06T08:36:03.016Z,11.93
2022-09-06T08:38:32.491Z,10.13
2022-09-06T08:41:15.063Z,9.52
2022-09-06T08:46:59.163Z,11.00
2022-09-06T08:52:05.882Z,10.13
2022-09-06T08:54:47.365Z,8.93
2022-09-06T08:57:29.120Z,13.65
2022-09-06T09:00:01.929Z,13.10
2022-09-06T09:02:41.125Z,13.27
2022-09-06T09:05:22.389Z,13.48
2022-09-06T09:07:55.192Z,14.98
2022-09-06T09:10:46.497Z,18.08
2022-09-06T09:13:25.583Z,14.82
2022-09-06T09:15:53.444Z,12.88
2022-09-06T09:18:45.508Z,9.65
2022-09-06T09:21:12.394Z,13.85
2022-09-06T09:23:39.204Z,8.60
2022-09-06T09:26:14.957Z,12.73
2022-09-06T09:29:09.899Z,9.15
2022-09-06T09:31:39.456Z,8.10
2022-09-06T09:34:12.054Z,12.70
2022-09-06T09:36:39.408Z,7.43
2022-09-06T09:39:12.516Z,12.60
2022-09-06T09:41:42.956Z,8.48
2022-09-06T09:44:16.453Z,9.75
2022-09-06T09:46:43.662Z,10.93
2022-09-06T09:49:22.819Z,11.25
2022-09-06T09:52:27.175Z,11.23
2022-09-06T09:54:57.716Z,12.35
2022-09-06T09:57:25.233Z,10.15
2022-09-06T09:59:58.596Z,9.88
2022-09-06T10:02:32.576Z,7.38
2022-09-06T10:05:17.714Z,9.07
2022-09-06T10:10:48.000Z,7.68
2022-09-06T10:13:22.194Z,9.38
2022-09-06T10:15:51.189Z,12.60
2022-09-06T10:18:33.937Z,9.50
2022-09-06T10:21:22.073Z,9.10
2022-09-06T10:26:59.208Z,10.15
2022-09-06T10:29:33.003Z,12.73
2022-09-06T10:32:41.393Z,9.75
2022-09-06T10:35:24.637Z,10.93
2022-09-06T10:38:10.166Z,10.38
2022-09-06T10:41:01.846Z,11.13
2022-09-06T10:43:43.309Z,10.35
2022-09-06T10:46:16.157Z,8.98
2022-09-06T10:48:46.522Z,9.27
2022-09-06T10:51:38.702Z,7.57
2022-09-06T10:54:11.776Z,6.97
2022-09-06T10:57:03.078Z,9.15
2022-09-06T10:59:55.574Z,10.27
2022-09-06T11:02:47.475Z,9.32
2022-09-06T11:05:39.296Z,9.55
2022-09-06T11:08:46.030Z,10.60
2022-09-06T11:11:36.055Z,11.35
2022-09-06T11:14:11.543Z,10.98
2022-09-06T11:17:07.189Z,13.13
2022-09-06T11:19:51.482Z,8.23
2022-09-06T11:22:37.061Z,7.75
2022-09-06T11:25:26.790Z,10.63
2022-09-06T11:27:59.257Z,11.15
2022-09-06T11:30:29.652Z,11.52
2022-09-06T11:33:18.468Z,8.43
2022-09-06T11:35:45.574Z,9.00
2022-09-06T11:38:15.461Z,7.93
2022-09-06T11:41:15.351Z,11.05
2022-09-06T11:43:50.839Z,9.40
2022-09-06T11:46:44.127Z,12.25
2022-09-06T11:49:29.021Z,11.70
2022-09-06T11:51:56.356Z,10.93
2022-09-06T11:54:37.116Z,8.77
2022-09-06T11:57:11.794Z,9.60
2022-09-06T11:59:52.428Z,11.30
2022-09-06T12:02:43.408Z,8.60
2022-09-06T12:05:11.918Z,12.15
2022-09-06T12:08:31.673Z,10.73
2022-09-06T12:11:00.371Z,10.20
2022-09-06T12:13:43.672Z,9.02
2022-09-06T12:16:18.724Z,10.50
2022-09-06T12:18:48.691Z,9.57
2022-09-06T12:21:34.120Z,11.13
2022-09-06T12:24:02.067Z,12.10
2022-09-06T12:26:55.793Z,11.93
2022-09-06T12:29:26.216Z,13.70
2022-09-06T12:31:58.728Z,11.68
2022-09-06T12:34:34.677Z,10.95
2022-09-06T12:37:07.388Z,12.52
2022-09-06T12:39:35.163Z,8.95
2022-09-06T12:42:11.079Z,10.40
2022-09-06T12:44:44.672Z,9.73
2022-09-06T12:47:37.355Z,9.80
2022-09-06T12:50:31.565Z,9.50
2022-09-06T12:53:00.898Z,7.43
2022-09-06T12:55:32.658Z,9.00
2022-09-06T12:58:11.595Z,11.35
2022-09-06T13:00:42.768Z,9.75
2022-09-06T13:03:30.519Z,12.35
2022-09-06T13:06:02.322Z,7.05
2022-09-06T13:08:38.162Z,11.70
2022-09-06T13:11:23.118Z,8.32
2022-09-06T13:13:53.906Z,8.52
2022-09-06T13:16:36.882Z,5.93
2022-09-06T13:19:14.518Z,7.70
2022-09-06T13:21:43.546Z,8.32
2022-09-06T13:24:46.509Z,8.02
2022-09-06T13:27:24.696Z,5.20
2022-09-06T13:30:02.831Z,5.95
2022-09-06T13:32:30.233Z,6.97
2022-09-06T13:34:59.745Z,6.35
2022-09-06T13:37:32.065Z,8.57
2022-09-06T13:42:37.582Z,5.72
2022-09-06T13:45:30.100Z,7.15
2022-09-06T13:48:13.067Z,7.72
2022-09-06T13:50:44.474Z,5.68
2022-09-06T13:53:11.262Z,5.68
2022-09-06T13:55:38.245Z,9.85
2022-09-06T13:58:05.031Z,5.45
2022-09-06T14:00:31.948Z,6.03
2022-09-06T14:02:58.946Z,4.93
2022-09-06T14:05:25.732Z,4.38
2022-09-06T14:07:52.539Z,8.45
2022-09-06T14:10:21.704Z,8.30
2022-09-06T14:12:48.518Z,5.43
2022-09-06T14:15:15.371Z,6.90
2022-09-06T14:17:42.171Z,5.07
2022-09-06T14:20:09.422Z,4.97
2022-09-06T14:22:37.319Z,6.43
2022-09-06T14:25:04.866Z,5.57
2022-09-06T14:27:32.676Z,4.38
2022-09-06T14:30:00.529Z,3.80
2022-09-06T14:32:27.299Z,4.93
2022-09-06T14:34:54.071Z,4.97
2022-09-06T14:37:22.042Z,4.30
2022-09-06T14:39:49.252Z,6.47
2022-09-06T14:42:16.545Z,7.20
2022-09-06T14:44:43.270Z,5.20
2022-09-06T14:47:10.001Z,5.35
2022-09-06T14:49:36.714Z,5.95
2022-09-06T14:52:03.744Z,5.38
2022-09-06T14:54:30.519Z,6.22
2022-09-06T14:56:57.386Z,5.03
2022-09-06T14:59:27.358Z,5.65
2022-09-06T15:01:54.528Z,5.63
2022-09-06T15:04:22.890Z,5.85
2022-09-06T15:06:50.840Z,4.35
2022-09-06T15:09:18.200Z,7.78
2022-09-06T15:11:48.442Z,7.28
2022-09-06T15:14:26.939Z,5.65
2022-09-06T15:16:56.616Z,4.90
2022-09-06T15:19:24.988Z,4.18
2022-09-06T15:21:52.301Z,5.95
2022-09-06T15:24:19.585Z,6.88
2022-09-06T15:26:46.785Z,6.50
2022-09-06T15:29:14.871Z,5.30
2022-09-06T15:31:42.895Z,5.45
2022-09-06T15:34:10.372Z,7.30
2022-09-06T15:36:38.048Z,4.55
2022-09-06T15:39:05.827Z,3.90
2022-09-06T15:41:36.032Z,6.25
2022-09-06T15:44:08.182Z,5.70
2022-09-06T15:46:34.868Z,5.53
2022-09-06T15:49:03.949Z,6.75
2022-09-06T15:51:31.131Z,6.22
2022-09-06T15:53:59.527Z,5.85
2022-09-06T15:56:26.607Z,7.90
2022-09-06T15:58:53.431Z,8.38
2022-09-06T16:01:22.104Z,6.35
2022-09-06T16:04:03.709Z,5.90
2022-09-06T16:06:37.075Z,7.03
2022-09-06T16:09:10.037Z,8.73
2022-09-06T16:11:37.273Z,6.43
2022-09-06T16:14:06.482Z,5.97
2022-09-06T16:16:34.833Z,4.75
2022-09-06T16:19:01.868Z,5.90
2022-09-06T16:21:32.409Z,6.53
2022-09-06T16:24:02.303Z,6.05
2022-09-06T16:26:35.417Z,6.50
2022-09-06T16:29:02.815Z,4.93
2022-09-06T16:31:30.161Z,5.45
2022-09-06T16:33:57.887Z,6.13
2022-09-06T16:36:25.843Z,5.18
2022-09-06T16:38:53.011Z,7.57
2022-09-06T16:41:25.191Z,7.80
2022-09-06T16:43:52.696Z,5.47
2022-09-06T16:46:24.914Z,6.97
2022-09-06T16:51:21.881Z,7.80
2022-09-06T16:53:49.925Z,6.20
2022-09-06T16:56:19.806Z,8.38
2022-09-06T16:58:55.118Z,6.55
2022-09-06T17:01:22.909Z,6.95
2022-09-06T17:03:50.491Z,8.10
2022-09-06T17:06:18.490Z,7.15
2022-09-06T17:08:45.860Z,5.90
2022-09-06T17:11:20.160Z,7.55
2022-09-06T17:13:50.412Z,6.45
2022-09-06T17:16:37.470Z,5.75
2022-09-06T17:19:05.610Z,7.40
2022-09-06T17:21:32.839Z,8.18
2022-09-06T17:24:02.902Z,7.05
2022-09-06T17:26:30.871Z,8.10
2022-09-06T17:28:57.794Z,5.40
2022-09-06T17:31:26.133Z,6.95
2022-09-06T17:33:53.764Z,8.93
2022-09-06T17:36:30.331Z,6.28
2022-09-06T17:39:13.696Z,7.40
2022-09-06T17:41:43.082Z,9.38
2022-09-06T17:44:11.159Z,6.78
2022-09-06T17:46:47.618Z,6.05
2022-09-06T17:49:24.679Z,7.65
2022-09-06T17:51:52.034Z,9.73
2022-09-06T17:54:18.986Z,9.05
2022-09-06T17:56:45.996Z,6.57
2022-09-06T17:59:15.369Z,6.55
2022-09-06T18:01:44.431Z,6.03
2022-09-06T18:04:12.686Z,6.88
2022-09-06T18:06:41.864Z,7.82
2022-09-06T18:09:12.682Z,7.65
2022-09-06T18:11:40.101Z,7.85
2022-09-06T18:14:12.259Z,9.30
2022-09-06T18:16:40.502Z,7.20
2022-09-06T18:19:08.506Z,7.82
2022-09-06T18:21:37.575Z,8.88
2022-09-06T18:24:05.020Z,9.52
2022-09-06T18:26:31.822Z,6.82
2022-09-06T18:28:58.615Z,9.80
2022-09-06T18:31:27.426Z,8.45
2022-09-06T18:34:00.347Z,9.82
2022-09-06T18:36:31.796Z,7.35
2022-09-06T18:39:02.977Z,8.38
2022-09-06T18:41:48.563Z,7.97
2022-09-06T18:44:16.656Z,7.45
2022-09-06T18:46:43.701Z,10.90
2022-09-06T18:49:13.400Z,9.40
2022-09-06T18:51:40.632Z,8.43
2022-09-06T18:54:07.602Z,7.60
2022-09-06T18:56:34.794Z,9.02
2022-09-06T18:59:02.342Z,7.90
2022-09-06T19:01:30.574Z,8.05
2022-09-06T19:03:58.917Z,6.93
2022-09-06T19:06:28.272Z,8.23
2022-09-06T19:08:59.054Z,8.27
2022-09-06T19:11:26.221Z,12.25
2022-09-06T19:13:54.847Z,9.85
2022-09-06T19:16:23.160Z,10.05
2022-09-06T19:18:50.881Z,8.60
2022-09-06T19:21:19.674Z,9.85
2022-09-06T19:23:53.810Z,8.63
2022-09-06T19:26:22.370Z,11.23
2022-09-06T19:28:58.431Z,6.97
2022-09-06T19:31:27.020Z,9.77
2022-09-06T19:33:55.603Z,10.38
2022-09-06T19:36:24.124Z,9.80
2022-09-06T19:39:03.626Z,6.50
2022-09-06T19:41:33.190Z,8.55
2022-09-06T19:44:00.409Z,9.77
2022-09-06T19:46:28.063Z,8.57
2022-09-06T19:48:58.731Z,8.80
2022-09-06T19:51:25.564Z,8.45
2022-09-06T19:53:55.041Z,9.40
2022-09-06T19:56:25.170Z,10.48
2022-09-06T19:58:57.728Z,6.90
2022-09-06T20:01:27.507Z,7.78
2022-09-06T20:03:54.912Z,7.18
2022-09-06T20:06:22.508Z,6.55
2022-09-06T20:08:54.068Z,8.05
2022-09-06T20:11:23.505Z,9.93
2022-09-06T20:13:50.543Z,8.95
2022-09-06T20:16:20.783Z,9.95
2022-09-06T20:18:49.024Z,9.77
2022-09-06T20:21:17.626Z,7.97
2022-09-06T20:23:53.498Z,9.25
2022-09-06T20:26:23.587Z,8.07
2022-09-06T20:29:02.079Z,9.65
2022-09-06T20:31:30.945Z,8.30
2022-09-06T20:34:00.556Z,6.35
2022-09-06T20:36:27.560Z,7.07
2022-09-06T20:38:54.330Z,8.43
2022-09-06T20:41:23.571Z,12.02
2022-09-06T20:43:52.506Z,8.75
2022-09-06T20:46:22.343Z,7.10
2022-09-06T20:48:49.125Z,9.32
2022-09-06T20:51:19.004Z,7.88
2022-09-06T20:53:48.105Z,9.85
2022-09-06T20:56:20.412Z,9.75
2022-09-06T21:01:16.477Z,8.48
2022-09-06T21:03:43.470Z,8.82
2022-09-06T21:06:12.197Z,8.07
2022-09-06T21:08:42.645Z,10.88
2022-09-06T21:11:10.652Z,7.75
2022-09-06T21:13:37.809Z,11.85
2022-09-06T21:16:05.579Z,8.23
2022-09-06T21:18:33.724Z,7.15
2022-09-06T21:21:01.442Z,7.90
2022-09-06T21:23:30.655Z,9.63
2022-09-06T21:26:01.858Z,8.27
2022-09-06T21:28:30.219Z,9.75
2022-09-06T21:31:05.912Z,7.13
2022-09-06T21:33:36.007Z,10.13
2022-09-06T21:36:06.846Z,8.90
2022-09-06T21:38:35.329Z,11.23
2022-09-06T21:41:03.001Z,9.77
2022-09-06T21:43:30.022Z,8.80
2022-09-06T21:45:58.107Z,7.18
2022-09-06T21:48:24.883Z,9.25
2022-09-06T21:50:51.963Z,8.75
2022-09-06T21:53:19.214Z,9.65
2022-09-06T21:55:45.951Z,9.90
2022-09-06T21:58:13.542Z,6.95
2022-09-06T22:00:41.378Z,12.18
2022-09-06T22:03:08.632Z,11.07
2022-09-06T22:05:35.514Z,9.65
2022-09-06T22:08:02.564Z,10.23
2022-09-06T22:10:29.275Z,10.95
2022-09-06T22:12:56.002Z,9.07
2022-09-06T22:15:23.569Z,16.08
2022-09-06T22:17:50.265Z,10.40
2022-09-06T22:20:17.250Z,9.82
2022-09-06T22:22:45.975Z,12.15
2022-09-06T22:25:13.669Z,7.95
2022-09-06T22:27:40.883Z,13.63
2022-09-06T22:30:08.432Z,12.27
2022-09-06T22:32:35.133Z,10.32
2022-09-06T22:35:02.220Z,11.63
2022-09-06T22:37:28.954Z,12.07
2022-09-06T22:39:56.118Z,11.57
2022-09-06T22:42:22.900Z,11.30
2022-09-06T22:44:49.595Z,10.23
2022-09-06T22:47:16.365Z,11.23
2022-09-06T22:49:43.176Z,12.57
2022-09-06T22:52:09.848Z,7.68
2022-09-06T22:54:37.934Z,8.43
2022-09-06T22:57:05.150Z,10.30
2022-09-06T22:59:35.289Z,12.13
2022-09-06T23:02:02.494Z,10.60
2022-09-06T23:04:29.269Z,8.10
2022-09-06T23:06:55.988Z,9.57
2022-09-06T23:09:22.660Z,9.02
2022-09-06T23:11:49.381Z,10.52
2022-09-06T23:14:16.271Z,9.30
2022-09-06T23:16:42.927Z,10.48
2022-09-06T23:19:10.810Z,10.05
2022-09-06T23:21:37.475Z,11.02
2022-09-06T23:24:04.205Z,10.05
2022-09-06T23:26:32.461Z,9.23
2022-09-06T23:28:59.950Z,10.02
2022-09-06T23:31:29.460Z,8.77
2022-09-06T23:33:58.068Z,10.10
2022-09-06T23:36:25.464Z,9.07
2022-09-06T23:38:52.340Z,10.52
2022-09-06T23:41:19.491Z,9.00
2022-09-06T23:43:46.266Z,8.20
2022-09-06T23:46:14.798Z,10.82
2022-09-06T23:48:43.220Z,9.88
2022-09-06T23:51:10.771Z,9.23
2022-09-06T23:53:37.540Z,8.10
2022-09-06T23:56:05.323Z,10.73
2022-09-06T23:58:32.314Z,8.35
